createdAt,value
2018-04-28T00:01:11.500Z,11.10
2018-04-28T00:03:42.099Z,11.20
2018-04-28T00:06:11.903Z,11.10
2018-04-28T00:08:42.544Z,11.20
2018-04-28T00:11:12.343Z,11.20
2018-04-28T00:13:42.144Z,11.20
2018-04-28T00:16:33.282Z,11.20
2018-04-28T00:19:06.672Z,11.20
2018-04-28T00:21:38.647Z,11.20
2018-04-28T00:24:09.272Z,11.20
2018-04-28T00:26:39.064Z,11.20
2018-04-28T00:29:11.161Z,11.20
2018-04-28T00:32:00.244Z,11.20
2018-04-28T00:34:36.040Z,11.20
2018-04-28T00:40:15.589Z,11.10
2018-04-28T00:42:47.488Z,11.10
2018-04-28T00:51:34.571Z,11.00
2018-04-28T01:00:43.444Z,10.80
2018-04-28T01:03:14.016Z,10.60
2018-04-28T01:05:49.068Z,10.60
2018-04-28T01:08:27.016Z,10.50
2018-04-28T01:14:16.704Z,10.50
2018-04-28T01:16:49.635Z,10.40
2018-04-28T01:19:29.557Z,10.40
2018-04-28T01:22:10.660Z,10.40
2018-04-28T01:24:43.783Z,10.30
2018-04-28T01:30:21.544Z,10.30
2018-04-28T01:33:03.043Z,10.20
2018-04-28T01:35:42.186Z,10.20
2018-04-28T01:38:11.989Z,10.20
2018-04-28T01:40:45.216Z,10.20
2018-04-28T01:43:35.703Z,10.20
2018-04-28T01:46:21.936Z,10.20
2018-04-28T01:48:56.149Z,10.10
2018-04-28T01:54:36.816Z,10.20
2018-04-28T01:57:16.115Z,10.10
2018-04-28T01:59:59.237Z,10.20
2018-04-28T02:02:56.459Z,10.20
2018-04-28T02:05:36.479Z,10.10
2018-04-28T02:08:07.045Z,10.20
2018-04-28T02:10:48.971Z,10.10
2018-04-28T02:13:48.453Z,10.10
2018-04-28T02:16:24.707Z,10.10
2018-04-28T02:19:08.516Z,10.00
2018-04-28T02:21:45.616Z,10.10
2018-04-28T02:30:59.068Z,10.00
2018-04-28T02:33:33.988Z,10.00
2018-04-28T02:36:19.064Z,10.00
2018-04-28T02:38:57.380Z,10.00
2018-04-28T02:41:45.453Z,10.00
2018-04-28T02:44:22.532Z,10.00
2018-04-28T02:47:10.501Z,10.00
2018-04-28T02:52:47.896Z,10.10
2018-04-28T02:55:44.076Z,10.00
2018-04-28T03:01:25.236Z,10.00
2018-04-28T03:03:59.304Z,10.00
2018-04-28T03:09:32.450Z,10.10
2018-04-28T03:12:05.217Z,10.10
2018-04-28T03:14:50.381Z,10.10
2018-04-28T03:17:24.573Z,10.10
2018-04-28T03:19:54.729Z,10.10
2018-04-28T03:22:24.879Z,10.10
2018-04-28T03:28:01.709Z,10.20
2018-04-28T03:30:50.061Z,10.20
2018-04-28T03:33:34.832Z,10.30
2018-04-28T03:36:07.786Z,10.30
2018-04-28T03:38:47.819Z,10.30
2018-04-28T03:41:27.432Z,10.30
2018-04-28T03:47:14.619Z,10.40
2018-04-28T03:49:44.072Z,10.30
2018-04-28T03:52:22.379Z,10.30
2018-04-28T03:54:57.949Z,10.30
2018-04-28T03:57:45.071Z,10.30
2018-04-28T04:00:32.240Z,10.30
2018-04-28T04:03:19.585Z,10.20
2018-04-28T04:05:55.677Z,10.20
2018-04-28T04:11:42.969Z,10.20
2018-04-28T04:14:24.200Z,10.10
2018-04-28T04:17:17.602Z,10.10
2018-04-28T04:26:30.036Z,10.10
2018-04-28T04:29:17.387Z,10.10
2018-04-28T04:32:07.900Z,10.00
2018-04-28T04:37:51.673Z,10.00
2018-04-28T04:50:09.069Z,10.00
2018-04-28T04:52:55.913Z,10.00
2018-04-28T04:55:31.692Z,10.10
2018-04-28T05:01:23.248Z,10.10
2018-04-28T05:03:57.748Z,10.10
2018-04-28T05:06:34.816Z,10.10
2018-04-28T05:12:21.464Z,10.20
2018-04-28T05:15:07.390Z,10.20
2018-04-28T05:17:51.281Z,10.30
2018-04-28T05:26:40.501Z,10.50
2018-04-28T05:35:32.296Z,10.70
2018-04-28T05:38:17.615Z,10.70
2018-04-28T05:50:39.626Z,11.10
2018-04-28T06:12:21.551Z,11.60
2018-04-28T06:14:55.522Z,11.60
2018-04-28T06:20:42.791Z,11.80
2018-04-28T06:23:12.264Z,11.90
2018-04-28T06:25:41.727Z,12.00
2018-04-28T06:28:11.208Z,12.10
2018-04-28T06:30:40.687Z,12.20
2018-04-28T06:33:10.171Z,12.20
2018-04-28T06:35:39.661Z,12.30
2018-04-28T06:38:09.140Z,12.40
2018-04-28T06:40:38.605Z,12.40
2018-04-28T06:43:08.069Z,12.50
2018-04-28T06:45:37.541Z,12.50
2018-04-28T06:48:07.789Z,12.70
2018-04-28T06:50:37.244Z,12.70
2018-04-28T06:53:07.487Z,13.00
2018-04-28T06:55:36.955Z,12.90
2018-04-28T06:58:06.420Z,13.10
2018-04-28T07:00:35.872Z,13.10
2018-04-28T07:03:05.492Z,13.20
2018-04-28T07:05:35.724Z,13.20
2018-04-28T07:08:05.955Z,13.30
2018-04-28T07:10:35.420Z,13.20
2018-04-28T07:13:04.895Z,13.30
2018-04-28T07:15:35.172Z,13.50
2018-04-28T07:18:05.413Z,13.60
2018-04-28T07:20:34.871Z,13.50
2018-04-28T07:23:04.340Z,13.70
2018-04-28T07:25:33.799Z,13.80
2018-04-28T07:28:04.055Z,13.90
2018-04-28T07:30:33.521Z,13.90
2018-04-28T07:33:02.971Z,14.00
2018-04-28T07:35:32.451Z,14.10
2018-04-28T07:38:02.684Z,14.20
2018-04-28T07:40:32.149Z,14.10
2018-04-28T07:43:01.615Z,14.20
2018-04-28T07:45:31.087Z,14.30
2018-04-28T13:47:55.123Z,20.40
2018-04-28T13:50:24.928Z,20.60
2018-04-28T13:52:54.728Z,20.80
2018-04-28T13:55:24.528Z,20.70
2018-04-28T13:57:54.339Z,20.90
2018-04-28T14:00:24.135Z,22.10
2018-04-28T14:02:53.940Z,23.60
2018-04-28T14:05:24.507Z,25.20
2018-04-28T14:07:54.314Z,25.20
2018-04-28T14:10:24.111Z,24.90
2018-04-28T14:12:53.917Z,24.30
2018-04-28T14:15:23.715Z,23.70
2018-04-28T14:17:54.305Z,22.20
2018-04-28T14:20:24.115Z,22.30
2018-04-28T14:22:53.916Z,21.70
2018-04-28T14:25:23.705Z,21.70
2018-04-28T14:27:53.521Z,22.00
2018-04-28T14:30:23.442Z,22.60
2018-04-28T14:32:53.225Z,22.70
2018-04-28T14:35:23.788Z,22.60
2018-04-28T14:37:53.595Z,22.60
2018-04-28T14:40:23.475Z,22.70
2018-04-28T14:42:54.060Z,22.40
2018-04-28T14:45:24.624Z,22.60
2018-04-28T14:47:54.444Z,22.60
2018-04-28T14:50:25.001Z,23.90
2018-04-28T14:52:54.802Z,23.90
2018-04-28T14:55:24.596Z,24.40
2018-04-28T14:57:55.163Z,23.80
2018-04-28T15:00:24.976Z,23.80
2018-04-28T15:02:54.773Z,23.30
2018-04-28T15:05:24.584Z,23.00
2018-04-28T15:07:54.389Z,22.70
2018-04-28T15:10:24.183Z,22.30
2018-04-28T15:12:54.748Z,21.70
2018-04-28T15:15:24.553Z,21.60
2018-04-28T15:17:54.370Z,21.70
2018-04-28T15:20:24.163Z,21.70
2018-04-28T15:22:54.734Z,21.30
2018-04-28T15:25:24.514Z,21.20
2018-04-28T15:27:54.323Z,21.20
2018-04-28T15:30:24.117Z,21.60
2018-04-28T15:32:55.995Z,21.30
2018-04-28T15:35:26.539Z,21.20
2018-04-28T15:37:56.346Z,21.20
2018-04-28T15:40:26.141Z,21.00
2018-04-28T15:42:56.810Z,20.80
2018-04-28T15:45:26.640Z,20.80
2018-04-28T15:47:56.440Z,20.70
2018-04-28T15:50:26.240Z,20.50
2018-04-28T15:52:56.127Z,20.30
2018-04-28T15:55:26.012Z,20.10
2018-04-28T15:57:55.783Z,20.00
2018-04-28T16:00:25.592Z,19.80
2018-04-28T16:02:55.395Z,19.80
2018-04-28T16:05:25.367Z,19.70
2018-04-28T16:07:55.167Z,19.70
2018-04-28T16:10:25.181Z,19.80
2018-04-28T16:12:55.778Z,19.90
2018-04-28T16:15:25.571Z,19.80
2018-04-28T16:18:02.796Z,20.00
2018-04-28T16:20:32.609Z,20.30
2018-04-28T16:23:02.408Z,20.70
2018-04-28T16:25:32.203Z,21.10
2018-04-28T16:28:02.092Z,21.30
2018-04-28T16:30:32.655Z,21.00
2018-04-28T16:33:02.476Z,20.90
2018-04-28T16:35:32.282Z,20.60
2018-04-28T16:38:02.096Z,20.40
2018-04-28T16:40:31.911Z,20.10
2018-04-28T16:43:01.720Z,20.00
2018-04-28T16:45:31.526Z,19.90
2018-04-28T16:48:02.257Z,19.90
2018-04-28T16:50:32.348Z,19.90
2018-04-28T16:53:02.459Z,19.90
2018-04-28T16:55:33.058Z,20.00
2018-04-28T16:58:02.941Z,19.90
2018-04-28T17:00:33.647Z,20.10
2018-04-28T17:03:04.229Z,20.10
2018-04-28T17:05:34.027Z,20.00
2018-04-28T17:08:03.852Z,20.00
2018-04-28T17:10:35.632Z,20.00
2018-04-28T17:13:05.473Z,19.90
2018-04-28T17:15:36.053Z,20.00
2018-04-28T17:18:05.889Z,20.00
2018-04-28T17:20:35.712Z,20.10
2018-04-28T17:23:05.519Z,20.10
2018-04-28T17:25:35.352Z,20.10
2018-04-28T17:28:05.927Z,19.80
2018-04-28T17:30:35.741Z,19.80
2018-04-28T17:33:05.561Z,19.70
2018-04-28T17:35:35.382Z,19.60
2018-04-28T17:38:05.188Z,19.50
2018-04-28T17:40:38.687Z,19.60
2018-04-28T17:43:08.492Z,19.60
2018-04-28T17:45:38.314Z,19.50
2018-04-28T17:48:08.122Z,19.40
2018-04-28T17:50:37.933Z,19.20
2018-04-28T17:53:07.727Z,19.10
2018-04-28T17:55:37.536Z,18.90
2018-04-28T17:58:07.335Z,18.80
2018-04-28T18:00:37.149Z,18.70
2018-04-28T18:03:06.968Z,18.50
2018-04-28T18:05:36.813Z,18.40
2018-04-28T18:08:10.542Z,18.30
2018-04-28T18:10:40.459Z,18.30
2018-04-28T18:13:11.041Z,18.10
2018-04-28T18:15:40.870Z,18.10
2018-04-28T18:18:10.792Z,18.00
2018-04-28T18:20:40.702Z,17.80
2018-04-28T18:23:10.520Z,17.70
2018-04-28T18:25:40.491Z,17.70
2018-04-28T18:28:10.290Z,17.60
2018-04-28T18:30:40.260Z,17.50
2018-04-28T18:33:10.075Z,17.40
2018-04-28T18:35:39.884Z,17.40
2018-04-28T18:38:09.717Z,17.30
2018-04-28T18:40:39.560Z,17.20
2018-04-28T18:43:09.334Z,17.20
2018-04-28T18:45:39.157Z,17.10
2018-04-28T18:48:08.968Z,17.10
2018-04-28T18:50:38.788Z,17.00
2018-04-28T18:53:09.445Z,16.90
2018-04-28T18:55:41.091Z,16.80
2018-04-28T18:58:10.957Z,16.80
2018-04-28T19:00:40.801Z,16.70
2018-04-28T19:03:10.688Z,16.70
2018-04-28T19:05:40.509Z,16.60
2018-04-28T19:08:10.757Z,16.60
2018-04-28T19:10:40.691Z,16.60
2018-04-28T19:13:10.516Z,16.50
2018-04-28T19:15:40.818Z,16.50
2018-04-28T19:18:10.785Z,16.40
2018-04-28T19:20:40.683Z,16.40
2018-04-28T19:23:10.493Z,16.30
2018-04-28T19:25:40.339Z,16.20
2018-04-28T19:28:10.170Z,16.20
2018-04-28T19:30:39.988Z,16.20
2018-04-28T19:33:09.795Z,16.10
2018-04-28T19:35:39.629Z,16.10
2018-04-28T19:38:09.434Z,16.00
2018-04-28T19:40:39.918Z,16.00
2018-04-28T19:43:10.252Z,15.90
2018-04-28T19:45:40.981Z,15.80
2018-04-28T19:48:10.795Z,15.80
2018-04-28T19:50:40.609Z,15.80
2018-04-28T19:53:17.748Z,15.70
2018-04-28T19:55:47.588Z,15.70
2018-04-28T19:58:17.396Z,15.70
2018-04-28T20:00:47.214Z,15.60
2018-04-28T20:03:17.012Z,15.60
2018-04-28T20:05:46.823Z,15.60
2018-04-28T20:08:16.713Z,15.60
2018-04-28T20:10:47.291Z,15.50
2018-04-28T20:13:17.140Z,15.50
2018-04-28T20:15:46.950Z,15.50
2018-04-28T20:18:17.545Z,15.50
2018-04-28T20:20:47.364Z,15.50
2018-04-28T20:23:34.748Z,15.50
2018-04-28T20:26:04.574Z,15.50
2018-04-28T20:28:34.375Z,15.50
2018-04-28T20:31:04.255Z,15.50
2018-04-28T20:33:34.293Z,15.50
2018-04-28T20:36:04.134Z,15.40
2018-04-28T20:38:33.916Z,15.40
2018-04-28T20:41:04.479Z,15.30
2018-04-28T20:43:34.284Z,15.30
2018-04-28T20:46:04.095Z,15.30
2018-04-28T20:48:33.898Z,15.30
2018-04-28T20:51:03.717Z,15.30
2018-04-28T20:53:33.527Z,15.30
2018-04-28T20:56:03.334Z,15.20
2018-04-28T20:58:33.138Z,15.20
2018-04-28T21:01:02.948Z,15.10
2018-04-28T21:03:32.755Z,15.10
2018-04-28T21:06:03.334Z,15.00
2018-04-28T21:08:33.208Z,15.00
2018-04-28T21:11:03.089Z,15.00
2018-04-28T21:13:32.884Z,15.00
2018-04-28T21:16:02.685Z,15.00
2018-04-28T21:18:32.483Z,15.00
2018-04-28T21:21:02.297Z,15.00
2018-04-28T21:23:35.604Z,14.90
2018-04-28T21:26:05.427Z,14.90
2018-04-28T21:28:35.232Z,14.90
2018-04-28T21:31:05.036Z,14.80
2018-04-28T21:33:34.837Z,14.80
2018-04-28T21:36:04.653Z,14.80
2018-04-28T21:38:34.539Z,14.80
2018-04-28T21:41:04.351Z,14.80
2018-04-28T21:43:34.908Z,14.70
2018-04-28T21:46:04.704Z,14.70
2018-04-28T21:48:34.518Z,14.70
2018-04-28T21:51:04.683Z,14.70
2018-04-28T21:53:34.558Z,14.70
2018-04-28T21:56:04.368Z,14.70
2018-04-28T21:58:34.173Z,14.70
2018-04-28T22:01:04.004Z,14.60
2018-04-28T22:03:33.803Z,14.60
2018-04-28T22:06:03.621Z,14.60
2018-04-28T22:08:34.386Z,14.60
2018-04-28T22:11:04.207Z,14.50
2018-04-28T22:13:34.028Z,14.50
2018-04-28T22:16:03.841Z,14.50
2018-04-28T22:18:33.643Z,14.50
2018-04-28T22:21:03.460Z,14.40
2018-04-28T22:23:33.344Z,14.40
2018-04-28T22:26:03.094Z,14.40
2018-04-28T22:28:32.903Z,14.40
2018-04-28T22:31:02.755Z,14.40
2018-04-28T22:33:32.554Z,14.40
2018-04-28T22:36:02.376Z,14.40
2018-04-28T22:38:32.190Z,14.40
2018-04-28T22:41:02.008Z,14.40
2018-04-28T22:43:31.830Z,14.30
2018-04-28T22:46:01.644Z,14.30
2018-04-28T22:48:31.460Z,14.30
2018-04-28T22:51:01.277Z,14.30
2018-04-28T22:53:31.112Z,14.30
2018-04-28T22:56:01.018Z,14.30
2018-04-28T22:58:30.847Z,14.20
2018-04-28T23:01:00.783Z,14.20
2018-04-28T23:03:31.426Z,14.10
2018-04-28T23:06:01.241Z,14.10
2018-04-28T23:08:31.061Z,14.10
2018-04-28T23:11:00.886Z,14.10
2018-04-28T23:13:30.708Z,14.00
2018-04-28T23:16:00.512Z,14.00
2018-04-28T23:18:30.332Z,14.00
2018-04-28T23:21:00.144Z,14.00
2018-04-28T23:23:29.959Z,14.00
2018-04-28T23:25:59.774Z,14.00
2018-04-28T23:28:29.580Z,14.00
2018-04-28T23:30:59.393Z,14.00
2018-04-28T23:33:29.213Z,14.00
2018-04-28T23:35:59.024Z,14.00
2018-04-28T23:38:28.860Z,13.90
2018-04-28T23:40:58.677Z,13.90
2018-04-28T23:43:28.495Z,13.90
2018-04-28T23:45:58.314Z,14.00
2018-04-28T23:48:28.131Z,13.90
2018-04-28T23:50:57.936Z,13.90
2018-04-28T23:53:27.768Z,13.90
2018-04-28T23:55:58.349Z,13.90
2018-04-28T23:58:28.164Z,13.90
